Jacksonville, FL

3:05 PM EDT on August 30, 2016 (GMT -0400)
| | Change Station
Active Advisory: Coastal Hazard Statement

Elev -9999 ft 0.00 °N, 0.00 °E | Updated

Thunderstorm
Thunderstorm
83 °F
Feels Like 88 °F
N
15
Wind Variable Wind from ENE
Gusts mph

Today
High -- | Low -- °F
--% Chance of Precip.
Yesterday
High -- | Low -- °F
Precip. -- in
Pressure 29.96 in
Visibility 10.0 miles
Clouds Few 3900 ft
Few 10000 ft
Heat Index 88 °F
Dew Point 73 °F
Humidity 72%
Rainfall --
Snow Depth Not available.
7:02 AM 7:50 PM
Waning Crescent, 3% visible
METAR KCRG 301853Z 10011KT 10SM FEW039 FEW100 28/23 A2996 RMK AO2 SLP144 T02830228
Pressure 29.96 in
Visibility 10.0 miles
Clouds Few 3900 ft
Few 10000 ft
Heat Index 88 °F
Dew Point 73 °F
Humidity 72%
Rainfall --
Snow Depth Not available.
7:02 AM 7:50 PM
Waning Crescent, 3% visible
METAR KCRG 301853Z 10011KT 10SM FEW039 FEW100 28/23 A2996 RMK AO2 SLP144 T02830228

10-Day Weather Forecast

Almanac

Astronomy

Aug. 30, 2016 Rise Set
Actual Time
Civil Twilight
Nautical Twilight
Astronomical Twilight
Moon
Length of Visible Light
Length of Day
Tomorrow will be .
, % of the Moon is Illuminated

Today's Extremes

State Highs State Lows

Community

WunderPhotos

Upload Photos

1,935,879 photos uploaded!

WunderBlog® & News

Nearby

Air Quality

  Air Quality AQ Index Pollutant
Not available.

Snow Depth

Station Depth Elevation

Earthquake Activity

City Distance Mag. Time & Date
Minimum magnitude displayed is 2.5.

Coastal Water Temperatures

Place Temperature

Stations

Nearby Weather Stations

Station Location Temp. Windchill Dew Point Humidity Wind Precip. Elev Updated Type
                   

Watches & Warnings

Coastal Hazard Statement
Issued: 2:15 AM EDT Aug. 30, 2016 – National Weather Service

... High rip current risk now in effect through this evening...

* timing... through 8 PM today.

* Impacts... rip currents will be life threatening. Rough surf with
breakers of 3 to 5 feet is also expected which can knock you
down. Longshore currents may be strong and push you into rip
currents.

Precautionary/preparedness actions...

There is a high risk of rip currents.

Rip currents will be life threatening.

Rip currents are powerful channels of water flowing quickly away
from shore... which occur most often at low spots or breaks in
The Sandbar and in the vicinity of structures such as groins...
jetties and piers. Heed the advice of lifeguards and the beach
patrol. Pay attention to flags and posted signs.

Swim near a lifeguard. If caught in a rip current remain calm.
Don't fight the current. Swim in a direction following the
shoreline. If unable to escape... face the shore and call or wave
for help. If tired... float or tread water until out of the rip
current.